Time;durP1;ratioP1;P1;durP2;ratioP2;P2;SDS_P1;SDS_P2;PMS_P1;PMS_P2;Temp;Humidity;BMP_temperature;BMP_pressure;BME280_temperature;BME280_humidity;BME280_pressure;Samples;Min_cycle;Max_cycle;Signal;HPM_P1;HPM_P2
2022/08/06 00:00:39;;;;;;;6.28;2.00;;;11.70;99.90;;;;;;5058363;28;20454;-69
2022/08/06 00:03:04;;;;;;;3.78;1.42;;;11.70;99.90;;;;;;5064520;28;20542;-69
2022/08/06 00:05:30;;;;;;;5.22;1.58;;;11.70;99.90;;;;;;5060066;28;20044;-69
2022/08/06 00:07:56;;;;;;;5.80;1.30;;;11.70;99.90;;;;;;5064180;28;20476;-69
2022/08/06 00:10:23;;;;;;;4.53;1.75;;;11.70;99.90;;;;;;5061731;28;20392;-69
2022/08/06 00:12:49;;;;;;;5.00;1.25;;;11.60;99.90;;;;;;5060882;28;20041;-69
2022/08/06 00:15:19;;;;;;;3.47;1.45;;;11.60;99.90;;;;;;5062062;28;20469;-69
2022/08/06 00:17:45;;;;;;;7.93;1.58;;;11.60;99.90;;;;;;5061623;28;20045;-69
2022/08/06 00:20:12;;;;;;;4.50;1.75;;;11.60;99.90;;;;;;5056251;28;20136;-69
2022/08/06 00:22:38;;;;;;;4.00;1.83;;;11.60;99.90;;;;;;5063575;28;20091;-69
2022/08/06 00:25:04;;;;;;;4.97;1.88;;;11.60;99.90;;;;;;5060376;28;20080;-69
2022/08/06 00:27:30;;;;;;;5.20;1.67;;;11.50;99.90;;;;;;5061934;28;20036;-69
2022/08/06 00:29:56;;;;;;;4.50;1.60;;;11.50;99.90;;;;;;5063055;28;20098;-69
2022/08/06 00:32:22;;;;;;;3.78;1.27;;;11.50;99.90;;;;;;5062916;28;20041;-69
2022/08/06 00:34:47;;;;;;;8.15;1.67;;;11.50;99.90;;;;;;5066883;28;20040;-69
2022/08/06 00:37:13;;;;;;;4.35;1.10;;;11.40;99.90;;;;;;5062872;28;20036;-70
2022/08/06 00:39:39;;;;;;;7.40;1.98;;;11.40;99.90;;;;;;5059141;28;20052;-69
2022/08/06 00:42:04;;;;;;;4.35;1.58;;;11.40;99.90;;;;;;5055927;28;20137;-69
2022/08/06 00:44:30;;;;;;;3.83;1.80;;;11.40;99.90;;;;;;5056856;28;20029;-69
2022/08/06 00:46:56;;;;;;;3.80;1.48;;;11.40;99.90;;;;;;5057826;28;20053;-69
2022/08/06 00:49:22;;;;;;;4.10;1.50;;;11.40;99.90;;;;;;5065246;28;20071;-69
2022/08/06 00:51:47;;;;;;;2.00;1.20;;;11.30;99.90;;;;;;5063795;28;20090;-69
2022/08/06 00:54:13;;;;;;;5.28;1.60;;;11.30;99.90;;;;;;5061637;28;20530;-69
2022/08/06 00:56:39;;;;;;;6.13;1.88;;;11.30;99.90;;;;;;5059346;28;20411;-69
2022/08/06 00:59:04;;;;;;;6.15;1.50;;;11.30;99.90;;;;;;5061557;28;20056;-69
2022/08/06 01:01:31;;;;;;;3.65;1.67;;;11.30;99.90;;;;;;5052063;28;20040;-70
2022/08/06 01:03:57;;;;;;;4.35;1.60;;;11.20;99.90;;;;;;5061222;28;20099;-70
2022/08/06 01:06:22;;;;;;;5.15;2.15;;;11.20;99.90;;;;;;5053231;28;20049;-70
2022/08/06 01:08:48;;;;;;;4.60;1.58;;;11.20;99.90;;;;;;5061297;28;20029;-70
2022/08/06 01:11:13;;;;;;;3.65;1.70;;;11.10;99.90;;;;;;5060415;28;20082;-70
2022/08/06 01:13:40;;;;;;;4.38;1.90;;;11.20;99.90;;;;;;5061057;28;20131;-69
2022/08/06 01:16:23;;;;;;;2.95;1.60;;;11.10;99.90;;;;;;5057545;28;20041;-69
2022/08/06 01:19:30;;;;;;;4.85;1.83;;;11.10;99.90;;;;;;5067387;28;20794;-70
2022/08/06 01:22:08;;;;;;;3.60;1.88;;;11.10;99.90;;;;;;5060216;28;20054;-70
2022/08/06 01:24:52;;;;;;;4.63;1.80;;;11.00;99.90;;;;;;5065580;28;20071;-70
2022/08/06 01:27:39;;;;;;;5.20;1.90;;;11.00;99.90;;;;;;5056410;28;20400;-71
2022/08/06 01:30:08;;;;;;;2.83;1.88;;;11.00;99.90;;;;;;5055186;28;20128;-70
2022/08/06 01:33:00;;;;;;;3.33;2.10;;;10.90;99.90;;;;;;5035005;28;20045;-71
2022/08/06 01:35:30;;;;;;;3.20;2.20;;;10.90;99.90;;;;;;5062467;28;20083;-71
2022/08/06 01:38:03;;;;;;;4.53;2.30;;;10.90;99.90;;;;;;5064413;28;20045;-70
2022/08/06 01:40:32;;;;;;;4.03;2.25;;;10.90;99.90;;;;;;5063151;28;20472;-70
2022/08/06 01:43:00;;;;;;;4.72;2.80;;;10.90;99.90;;;;;;5061713;28;20078;-70
2022/08/06 01:45:30;;;;;;;5.10;2.10;;;10.90;99.90;;;;;;5060195;28;20102;-70
2022/08/06 01:48:04;;;;;;;5.35;2.15;;;10.90;99.90;;;;;;5064556;28;20408;-70
2022/08/06 01:50:36;;;;;;;4.63;2.25;;;10.90;99.90;;;;;;5061999;28;20025;-70
2022/08/06 01:53:05;;;;;;;4.40;2.35;;;10.80;99.90;;;;;;5054138;28;20106;-70
2022/08/06 01:55:38;;;;;;;4.93;2.40;;;10.90;99.90;;;;;;5046275;28;20063;-70
2022/08/06 01:58:06;;;;;;;4.45;2.47;;;10.80;99.90;;;;;;5056732;28;20059;-70
2022/08/06 02:00:36;;;;;;;6.07;2.50;;;10.80;99.90;;;;;;5057612;28;20068;-70
2022/08/06 02:03:10;;;;;;;4.60;1.92;;;10.80;99.90;;;;;;5061607;28;20048;-70
2022/08/06 02:05:38;;;;;;;5.18;2.40;;;10.70;99.90;;;;;;5060638;28;20060;-70
2022/08/06 02:08:07;;;;;;;4.70;1.95;;;10.70;99.90;;;;;;5061015;28;20036;-70
2022/08/06 02:10:35;;;;;;;5.30;1.90;;;10.80;99.90;;;;;;5058856;28;20044;-71
2022/08/06 02:13:02;;;;;;;3.95;2.13;;;10.70;99.90;;;;;;5042095;28;20052;-70
2022/08/06 02:15:30;;;;;;;3.38;1.60;;;10.70;99.90;;;;;;5055710;28;20086;-70
2022/08/06 02:18:00;;;;;;;3.70;2.15;;;10.70;99.90;;;;;;5058798;28;20128;-71
2022/08/06 02:20:38;;;;;;;5.65;2.03;;;10.70;99.90;;;;;;5055522;28;20067;-70
2022/08/06 02:23:06;;;;;;;6.82;1.70;;;10.60;99.90;;;;;;5057972;28;20690;-71
2022/08/06 02:25:33;;;;;;;3.75;2.00;;;10.60;99.90;;;;;;5057427;28;20056;-69
2022/08/06 02:28:02;;;;;;;3.17;1.77;;;10.60;99.90;;;;;;5057404;28;20124;-69
2022/08/06 02:30:32;;;;;;;3.13;1.88;;;10.60;99.90;;;;;;5056994;28;20102;-69
2022/08/06 02:32:58;;;;;;;3.17;1.52;;;10.60;99.90;;;;;;5063294;28;20041;-69
2022/08/06 02:35:25;;;;;;;4.88;1.70;;;10.50;99.90;;;;;;5050605;28;20068;-69
2022/08/06 02:38:23;;;;;;;3.30;1.80;;;10.50;99.90;;;;;;5060392;28;20041;-68
2022/08/06 02:41:15;;;;;;;3.90;1.55;;;10.50;99.90;;;;;;5046806;28;20036;-68
2022/08/06 02:43:47;;;;;;;6.47;2.25;;;10.50;99.90;;;;;;5055599;28;20540;-68
2022/08/06 02:46:23;;;;;;;3.65;1.63;;;10.50;99.90;;;;;;5058384;28;20779;-68
2022/08/06 02:49:08;;;;;;;2.88;1.60;;;10.40;99.90;;;;;;5059520;28;20123;-68
2022/08/06 02:51:47;;;;;;;4.28;1.65;;;10.50;99.90;;;;;;5057135;28;20068;-68
2022/08/06 02:54:31;;;;;;;4.30;1.60;;;10.40;99.90;;;;;;5058658;28;20055;-68
2022/08/06 02:57:02;;;;;;;3.25;1.60;;;10.40;99.90;;;;;;5040836;28;20041;-69
2022/08/06 02:59:31;;;;;;;3.85;1.88;;;10.40;99.90;;;;;;5063293;28;20136;-69
2022/08/06 03:02:00;;;;;;;2.95;1.58;;;10.30;99.90;;;;;;5062131;28;20106;-69
2022/08/06 03:04:28;;;;;;;4.07;1.40;;;10.20;99.90;;;;;;5045571;28;20057;-69
2022/08/06 03:06:56;;;;;;;6.38;1.50;;;10.20;99.90;;;;;;5067768;28;20102;-69
2022/08/06 03:09:23;;;;;;;4.15;1.75;;;10.20;99.90;;;;;;5061350;28;20543;-70
2022/08/06 03:11:50;;;;;;;1.80;1.25;;;10.20;99.90;;;;;;5057429;28;20033;-70
2022/08/06 03:14:18;;;;;;;3.70;1.20;;;10.00;99.90;;;;;;5066423;28;20121;-70
2022/08/06 03:16:45;;;;;;;3.42;1.42;;;10.10;99.90;;;;;;5065618;28;20048;-70
2022/08/06 03:19:13;;;;;;;4.15;1.35;;;10.10;99.90;;;;;;5067723;28;20056;-70
2022/08/06 03:21:42;;;;;;;3.08;1.15;;;10.10;99.90;;;;;;5063715;28;20052;-70
2022/08/06 03:24:09;;;;;;;3.25;1.10;;;10.10;99.90;;;;;;5062696;28;20056;-70
2022/08/06 03:26:36;;;;;;;2.92;1.85;;;10.00;99.90;;;;;;5062054;28;20397;-70
2022/08/06 03:29:03;;;;;;;3.42;1.55;;;10.00;99.90;;;;;;5061899;28;20090;-70
2022/08/06 03:31:31;;;;;;;2.13;1.23;;;10.00;99.90;;;;;;5060522;28;20484;-70
2022/08/06 03:33:58;;;;;;;2.28;1.33;;;10.00;99.90;;;;;;5064387;28;20124;-71
2022/08/06 03:36:24;;;;;;;4.05;1.50;;;9.90;99.90;;;;;;5066510;28;20035;-71
2022/08/06 03:38:57;;;;;;;1.85;1.15;;;9.90;99.90;;;;;;5064696;28;20044;-71
2022/08/06 03:41:24;;;;;;;3.88;1.27;;;9.90;99.90;;;;;;5062753;28;20381;-71
2022/08/06 03:43:50;;;;;;;2.08;1.27;;;9.90;99.90;;;;;;5063777;28;20075;-71
2022/08/06 03:46:34;;;;;;;2.75;1.20;;;9.80;99.90;;;;;;5061824;28;20032;-71
2022/08/06 03:49:03;;;;;;;3.58;1.52;;;9.80;99.90;;;;;;5063456;28;20047;-71
2022/08/06 03:51:30;;;;;;;2.50;1.20;;;9.80;99.90;;;;;;5062482;28;20511;-71
2022/08/06 03:53:59;;;;;;;3.03;1.20;;;9.80;99.90;;;;;;5057979;28;20566;-71
2022/08/06 03:56:28;;;;;;;2.38;1.10;;;9.80;99.90;;;;;;5060962;28;20041;-71
2022/08/06 03:58:59;;;;;;;3.42;0.95;;;9.70;99.90;;;;;;5061626;28;20029;-69
2022/08/06 04:01:30;;;;;;;1.92;1.05;;;9.70;99.90;;;;;;5059943;28;20120;-69
2022/08/06 04:03:57;;;;;;;1.33;0.75;;;9.70;99.90;;;;;;5081407;28;20098;-69
2022/08/06 04:06:25;;;;;;;1.52;1.02;;;9.70;99.90;;;;;;5066937;28;20040;-69
2022/08/06 04:08:52;;;;;;;1.77;1.10;;;9.70;99.90;;;;;;5043585;28;20041;-69
2022/08/06 04:11:18;;;;;;;2.83;1.40;;;9.70;99.90;;;;;;5048225;28;20527;-69
2022/08/06 04:13:44;;;;;;;2.15;1.02;;;9.70;99.90;;;;;;5048175;28;20059;-69
2022/08/06 04:16:14;;;;;;;1.55;1.27;;;9.70;99.90;;;;;;5064765;28;20127;-69
2022/08/06 04:18:42;;;;;;;2.30;1.27;;;9.80;99.90;;;;;;5056967;28;20040;-69
2022/08/06 04:21:14;;;;;;;1.80;1.27;;;9.80;99.90;;;;;;5060106;28;20112;-69
2022/08/06 04:23:40;;;;;;;2.30;1.05;;;9.70;99.90;;;;;;5057471;28;20059;-69
2022/08/06 04:26:08;;;;;;;3.17;1.13;;;9.80;99.90;;;;;;5060993;28;20040;-70
2022/08/06 04:28:36;;;;;;;3.65;1.42;;;9.80;99.90;;;;;;5060620;28;20594;-70
2022/08/06 04:31:03;;;;;;;1.38;1.08;;;9.80;99.90;;;;;;5064547;28;20480;-70
2022/08/06 04:33:33;;;;;;;2.45;1.25;;;9.80;99.90;;;;;;5061452;28;20028;-71
2022/08/06 04:36:04;;;;;;;1.83;1.15;;;9.80;99.90;;;;;;5063584;28;20038;-70
2022/08/06 04:38:31;;;;;;;1.80;1.00;;;9.90;99.90;;;;;;5040833;28;20560;-70
2022/08/06 04:40:58;;;;;;;2.70;1.10;;;9.90;99.90;;;;;;5064594;28;20044;-70
2022/08/06 04:43:24;;;;;;;1.90;1.00;;;9.90;99.90;;;;;;5057867;28;20037;-70
2022/08/06 04:45:50;;;;;;;4.20;1.23;;;9.90;99.90;;;;;;5059680;28;20446;-70
2022/08/06 04:48:16;;;;;;;3.75;1.20;;;9.90;99.90;;;;;;5065331;28;20048;-70
2022/08/06 04:50:42;;;;;;;2.25;1.10;;;10.00;99.90;;;;;;5061896;28;20040;-70
2022/08/06 04:53:14;;;;;;;2.95;1.52;;;10.00;99.90;;;;;;5063534;28;20040;-70
2022/08/06 04:55:41;;;;;;;3.22;1.38;;;10.00;99.90;;;;;;5062086;28;20114;-70
2022/08/06 04:58:12;;;;;;;4.75;1.17;;;10.10;99.90;;;;;;5062795;28;20408;-70
2022/08/06 05:00:46;;;;;;;3.10;1.40;;;10.20;99.90;;;;;;5060567;28;20052;-70
2022/08/06 05:03:13;;;;;;;2.30;1.50;;;10.30;99.90;;;;;;5064383;28;20040;-70
2022/08/06 05:05:52;;;;;;;2.88;1.30;;;10.40;99.90;;;;;;5053192;28;20036;-70
2022/08/06 05:08:20;;;;;;;3.00;1.30;;;10.40;99.90;;;;;;5039340;28;20079;-70
2022/08/06 05:10:58;;;;;;;2.97;1.35;;;10.50;99.90;;;;;;5061107;28;20102;-70
2022/08/06 05:13:29;;;;;;;5.93;1.50;;;10.70;99.90;;;;;;5049732;28;20095;-70
2022/08/06 05:15:59;;;;;;;3.63;1.50;;;10.80;99.90;;;;;;5061723;28;20048;-70
2022/08/06 05:18:29;;;;;;;3.38;1.50;;;11.00;99.90;;;;;;5048550;28;20054;-70
2022/08/06 05:20:56;;;;;;;3.80;1.20;;;11.10;99.90;;;;;;5044333;28;20140;-70
2022/08/06 05:23:34;;;;;;;4.63;1.40;;;11.30;99.90;;;;;;5061981;28;20074;-70
2022/08/06 05:25:59;;;;;;;3.50;1.55;;;11.50;99.90;;;;;;5055020;28;20495;-70
2022/08/06 05:28:25;;;;;;;3.80;1.40;;;11.50;99.90;;;;;;5065534;28;20135;-70
2022/08/06 05:30:52;;;;;;;3.20;1.67;;;11.80;99.90;;;;;;5050813;28;20040;-70
2022/08/06 05:33:33;;;;;;;2.58;1.40;;;11.90;99.90;;;;;;5060798;28;20064;-70
2022/08/06 05:36:00;;;;;;;3.83;1.27;;;12.10;99.90;;;;;;5056944;28;20124;-70
2022/08/06 05:38:26;;;;;;;4.57;1.52;;;12.30;99.90;;;;;;5059593;28;20045;-70
2022/08/06 05:40:55;;;;;;;3.67;1.50;;;12.40;99.90;;;;;;5062995;28;20074;-70
2022/08/06 05:43:21;;;;;;;4.72;1.73;;;12.50;99.90;;;;;;5061844;28;20452;-70
2022/08/06 05:45:50;;;;;;;2.50;1.60;;;12.70;99.90;;;;;;5057462;28;20049;-70
2022/08/06 05:48:19;;;;;;;2.78;1.50;;;12.80;99.90;;;;;;5061350;28;20037;-70
2022/08/06 05:50:49;;;;;;;4.15;1.48;;;13.00;99.90;;;;;;5061144;28;20048;-70
2022/08/06 05:53:31;;;;;;;1.63;0.85;;;13.10;99.90;;;;;;5059433;28;20045;-70
2022/08/06 05:56:01;;;;;;;3.20;1.10;;;13.30;99.90;;;;;;5066008;28;20148;-70
2022/08/06 05:58:36;;;;;;;2.75;1.42;;;13.50;99.90;;;;;;5058716;28;20459;-70
2022/08/06 06:01:04;;;;;;;4.25;1.10;;;13.60;99.90;;;;;;5055970;28;20080;-70
2022/08/06 06:03:31;;;;;;;2.20;0.88;;;13.80;99.90;;;;;;5046505;28;20098;-70
2022/08/06 06:05:59;;;;;;;4.07;1.13;;;13.90;99.90;;;;;;5045875;28;20032;-70
2022/08/06 06:08:25;;;;;;;2.58;1.02;;;14.10;99.90;;;;;;5062045;28;20041;-70
2022/08/06 06:10:52;;;;;;;5.00;1.02;;;14.20;99.90;;;;;;5058508;28;20044;-70
2022/08/06 06:13:23;;;;;;;1.25;0.70;;;14.40;99.90;;;;;;5042416;28;20125;-70
2022/08/06 06:16:22;;;;;;;1.67;0.70;;;14.50;99.90;;;;;;5058697;28;20113;-71
2022/08/06 06:19:12;;;;;;;3.33;1.00;;;14.60;99.90;;;;;;5062406;28;20049;-71
2022/08/06 06:22:05;;;;;;;3.17;0.82;;;14.70;99.90;;;;;;5056691;28;20108;-71
2022/08/06 06:24:37;;;;;;;2.78;1.15;;;14.90;99.90;;;;;;5063720;28;20060;-71
2022/08/06 06:27:20;;;;;;;3.83;1.25;;;15.10;99.90;;;;;;5043486;28;20056;-71
2022/08/06 06:30:47;;;;;;;2.53;1.00;;;15.20;99.90;;;;;;5061020;28;20591;-71
2022/08/06 06:33:45;;;;;;;2.35;0.80;;;15.40;99.90;;;;;;5031283;28;20053;-71
2022/08/06 06:36:40;;;;;;;3.15;0.77;;;15.50;99.90;;;;;;5052634;28;20152;-71
2022/08/06 06:39:14;;;;;;;1.63;0.50;;;15.80;99.90;;;;;;5056484;28;20404;-71
2022/08/06 06:42:03;;;;;;;3.30;0.70;;;15.90;99.90;;;;;;5061530;28;20084;-71
2022/08/06 06:44:39;;;;;;;2.65;0.60;;;16.10;99.90;;;;;;5057360;28;20388;-71
2022/08/06 06:47:12;;;;;;;1.15;0.38;;;16.20;99.90;;;;;;5059120;28;20048;-71
2022/08/06 06:49:51;;;;;;;2.03;0.50;;;16.30;99.90;;;;;;5062002;28;20107;-71
2022/08/06 06:52:22;;;;;;;4.47;0.40;;;16.30;99.90;;;;;;5047973;28;20037;-71
2022/08/06 06:54:57;;;;;;;4.25;0.70;;;16.40;99.90;;;;;;5064031;28;20097;-71
2022/08/06 06:57:31;;;;;;;1.50;0.50;;;16.50;99.90;;;;;;5065132;28;20053;-71
2022/08/06 07:00:01;;;;;;;2.22;0.60;;;16.60;99.90;;;;;;5064339;28;20040;-71
2022/08/06 07:02:30;;;;;;;2.40;0.60;;;16.80;99.90;;;;;;5060569;28;20475;-71
2022/08/06 07:04:56;;;;;;;1.77;0.50;;;16.90;99.90;;;;;;5058547;28;20106;-71
2022/08/06 07:07:23;;;;;;;1.85;0.68;;;17.10;99.90;;;;;;5061867;28;20138;-71
2022/08/06 07:09:50;;;;;;;1.70;0.55;;;17.20;99.90;;;;;;5063210;28;20094;-71
2022/08/06 07:12:20;;;;;;;2.35;0.60;;;17.40;99.90;;;;;;5049816;28;20048;-71
2022/08/06 07:14:48;;;;;;;2.65;0.50;;;17.60;99.90;;;;;;5065762;28;20053;-71
2022/08/06 07:17:18;;;;;;;1.77;0.43;;;17.70;99.90;;;;;;5066979;28;20064;-71
2022/08/06 07:19:46;;;;;;;1.20;0.30;;;17.80;99.90;;;;;;5060324;28;20048;-71
2022/08/06 07:22:13;;;;;;;1.88;0.30;;;18.00;99.90;;;;;;5067495;28;20651;-71
2022/08/06 07:24:41;;;;;;;2.95;0.30;;;18.10;99.90;;;;;;5058482;28;20512;-71
2022/08/06 07:27:08;;;;;;;2.08;0.40;;;18.30;99.90;;;;;;5062955;28;20064;-71
2022/08/06 07:29:35;;;;;;;1.83;0.40;;;18.40;99.90;;;;;;5053836;28;20059;-71
2022/08/06 07:32:01;;;;;;;1.17;0.30;;;18.60;99.90;;;;;;5058374;28;20049;-70
2022/08/06 07:34:28;;;;;;;3.75;0.60;;;18.70;99.90;;;;;;5058617;28;20766;-71
2022/08/06 07:36:56;;;;;;;1.17;0.30;;;18.80;99.90;;;;;;5065054;28;20404;-71
2022/08/06 07:39:29;;;;;;;3.33;0.40;;;19.00;99.90;;;;;;5059559;28;20544;-71
2022/08/06 07:41:58;;;;;;;0.80;0.10;;;19.20;99.90;;;;;;5062968;28;20041;-71
2022/08/06 07:44:27;;;;;;;0.80;0.20;;;19.30;99.90;;;;;;5060023;28;20068;-71
2022/08/06 07:46:56;;;;;;;2.72;0.30;;;19.40;99.90;;;;;;5061538;28;20053;-71
2022/08/06 07:49:25;;;;;;;0.98;0.20;;;19.40;99.90;;;;;;5059942;28;20037;-71
2022/08/06 07:51:54;;;;;;;5.15;0.35;;;19.40;99.90;;;;;;5057931;28;20047;-71
2022/08/06 07:54:21;;;;;;;2.10;0.30;;;19.30;99.90;;;;;;5065147;28;20464;-71
2022/08/06 07:56:47;;;;;;;1.40;0.20;;;19.40;99.90;;;;;;5062273;28;20507;-71
2022/08/06 07:59:14;;;;;;;2.80;0.20;;;19.40;99.90;;;;;;5058258;28;20048;-70
2022/08/06 08:01:40;;;;;;;2.60;0.60;;;19.80;99.90;;;;;;5063996;28;20040;-70
2022/08/06 08:06:53;;;;;;;3.65;0.20;;;19.90;99.90;;;;;;5062448;28;20051;-71
2022/08/06 08:09:23;;;;;;;2.35;0.20;;;20.10;99.60;;;;;;5064045;28;20045;-71
2022/08/06 08:11:50;;;;;;;3.30;0.30;;;20.20;99.90;;;;;;5060516;28;20025;-71
2022/08/06 08:14:21;;;;;;;2.72;0.47;;;20.60;99.90;;;;;;5051155;28;20115;-71
2022/08/06 08:16:48;;;;;;;1.60;0.40;;;21.00;99.30;;;;;;5064034;28;20036;-71
2022/08/06 08:19:31;;;;;;;2.10;0.20;;;21.20;96.80;;;;;;5060540;28;20045;-71
2022/08/06 08:22:00;;;;;;;2.22;0.30;;;21.80;96.20;;;;;;5055729;28;20095;-71
2022/08/06 08:24:27;;;;;;;2.40;0.30;;;21.80;94.50;;;;;;5062647;28;20044;-71
2022/08/06 08:26:54;;;;;;;1.40;0.20;;;21.50;93.80;;;;;;5058651;28;20441;-71
2022/08/06 08:29:19;;;;;;;2.88;0.40;;;21.00;92.70;;;;;;5059838;28;20041;-71
2022/08/06 08:31:46;;;;;;;1.35;0.30;;;20.60;92.90;;;;;;5057455;28;20469;-71
2022/08/06 08:34:12;;;;;;;1.90;0.30;;;20.30;92.70;;;;;;5061198;28;20053;-71
2022/08/06 08:36:38;;;;;;;2.38;0.30;;;20.60;93.80;;;;;;5060015;28;20671;-71
2022/08/06 08:39:04;;;;;;;2.17;0.25;;;21.40;91.40;;;;;;5061256;28;20055;-72
2022/08/06 08:41:40;;;;;;;1.67;0.30;;;22.10;91.50;;;;;;5057069;28;20497;-71
2022/08/06 08:44:07;;;;;;;2.95;0.30;;;23.00;90.70;;;;;;5054125;28;20052;-71
2022/08/06 08:46:42;;;;;;;1.92;0.30;;;23.70;82.10;;;;;;5060331;28;20044;-71
2022/08/06 08:49:19;;;;;;;2.78;0.40;;;23.20;75.90;;;;;;5056463;28;20052;-71
2022/08/06 08:51:46;;;;;;;3.45;0.50;;;22.40;75.50;;;;;;5060024;28;20053;-71
2022/08/06 08:54:16;;;;;;;2.83;0.30;;;22.10;79.50;;;;;;5059884;28;20053;-72
2022/08/06 08:56:43;;;;;;;1.77;0.35;;;22.40;78.20;;;;;;5061529;28;20141;-72
2022/08/06 08:59:14;;;;;;;2.22;0.32;;;23.10;78.60;;;;;;5064362;28;20443;-72
2022/08/06 09:01:40;;;;;;;2.83;0.60;;;23.50;72.70;;;;;;5060442;28;20041;-72
2022/08/06 09:04:07;;;;;;;4.07;0.68;;;23.80;72.90;;;;;;5042964;28;20086;-72
2022/08/06 09:06:35;;;;;;;4.93;0.95;;;24.10;71.80;;;;;;5054984;28;20056;-72
2022/08/06 09:09:03;;;;;;;3.55;0.80;;;24.40;70.20;;;;;;5057229;28;20072;-72
2022/08/06 09:11:30;;;;;;;4.43;0.82;;;24.60;67.20;;;;;;5060317;28;20129;-71
2022/08/06 09:13:59;;;;;;;2.30;0.75;;;24.80;66.60;;;;;;5039161;28;20048;-71
2022/08/06 09:16:25;;;;;;;1.88;0.88;;;24.90;64.30;;;;;;5059450;28;20087;-70
2022/08/06 09:18:51;;;;;;;3.00;0.68;;;25.00;63.90;;;;;;5057085;28;20632;-72
2022/08/06 09:21:16;;;;;;;1.45;0.70;;;25.10;62.70;;;;;;5060011;28;20139;-71
2022/08/06 09:23:42;;;;;;;2.92;0.80;;;25.20;61.80;;;;;;5060943;28;20128;-72
2022/08/06 09:26:08;;;;;;;2.15;0.90;;;25.40;61.90;;;;;;5061354;28;20157;-71
2022/08/06 09:28:37;;;;;;;1.15;0.80;;;25.60;60.40;;;;;;5057677;28;20052;-69
2022/08/06 09:31:06;;;;;;;1.88;0.77;;;25.40;59.40;;;;;;5057995;28;20510;-69
2022/08/06 09:33:34;;;;;;;2.33;1.13;;;24.60;58.30;;;;;;5061963;28;20040;-68
2022/08/06 09:36:08;;;;;;;2.38;0.90;;;23.90;60.30;;;;;;5061494;28;20559;-68
2022/08/06 09:38:47;;;;;;;4.88;1.27;;;23.30;61.10;;;;;;5059634;28;20032;-65
2022/08/06 09:41:13;;;;;;;2.30;1.00;;;23.30;60.70;;;;;;5063398;28;20500;-67
2022/08/06 09:43:39;;;;;;;3.30;1.02;;;23.50;61.70;;;;;;5058528;28;20067;-67
2022/08/06 09:46:06;;;;;;;3.55;1.23;;;23.40;59.70;;;;;;5060370;28;20041;-67
2022/08/06 09:48:33;;;;;;;2.45;0.93;;;23.50;61.90;;;;;;5056194;28;20047;-67
2022/08/06 09:50:59;;;;;;;1.98;1.00;;;23.90;59.70;;;;;;5062342;28;20040;-67
2022/08/06 09:53:25;;;;;;;2.28;1.00;;;24.20;58.80;;;;;;5052848;28;20504;-67
2022/08/06 09:55:54;;;;;;;2.97;1.20;;;24.50;59.50;;;;;;5053112;28;20059;-67
2022/08/06 09:58:34;;;;;;;2.22;1.00;;;24.90;59.20;;;;;;5056139;28;20047;-67
2022/08/06 10:01:20;;;;;;;2.95;1.20;;;25.30;58.10;;;;;;5058367;28;20041;-68
2022/08/06 10:03:46;;;;;;;1.38;0.88;;;26.00;57.40;;;;;;5060252;28;20048;-68
2022/08/06 10:06:14;;;;;;;1.60;0.90;;;26.50;59.10;;;;;;5060060;28;20037;-68
2022/08/06 10:08:41;;;;;;;1.88;0.90;;;26.60;55.80;;;;;;5061980;28;20045;-67
2022/08/06 10:11:07;;;;;;;1.88;0.77;;;26.30;55.30;;;;;;5057730;28;20974;-68
2022/08/06 10:13:34;;;;;;;1.80;1.00;;;26.40;55.70;;;;;;5059440;28;20064;-67
2022/08/06 10:16:16;;;;;;;2.15;0.98;;;26.50;55.10;;;;;;5063200;28;20485;-67
2022/08/06 10:18:48;;;;;;;2.80;1.25;;;26.20;49.40;;;;;;5068964;28;20041;-67
2022/08/06 10:21:17;;;;;;;1.88;0.82;;;26.00;54.00;;;;;;5065063;28;20053;-67
2022/08/06 10:23:47;;;;;;;1.63;0.85;;;26.30;52.80;;;;;;5064653;28;20036;-67
2022/08/06 10:26:18;;;;;;;2.25;1.00;;;26.70;52.30;;;;;;5065586;28;20373;-68
2022/08/06 10:28:45;;;;;;;2.10;0.80;;;26.90;49.90;;;;;;5062607;28;20033;-68
2022/08/06 10:31:12;;;;;;;1.35;0.80;;;26.80;49.30;;;;;;5065755;28;20066;-68
2022/08/06 10:33:51;;;;;;;2.22;0.70;;;26.80;49.10;;;;;;5062888;28;20063;-68
2022/08/06 10:36:22;;;;;;;1.67;0.55;;;26.20;49.40;;;;;;5063098;28;20060;-67
2022/08/06 10:38:50;;;;;;;2.88;0.98;;;25.40;51.10;;;;;;5064346;28;20048;-67
2022/08/06 10:41:17;;;;;;;2.80;1.10;;;24.60;52.30;;;;;;5064171;28;20040;-67
2022/08/06 10:43:43;;;;;;;4.47;1.00;;;24.10;53.40;;;;;;5062408;28;20048;-67
2022/08/06 10:46:15;;;;;;;1.67;0.80;;;23.80;54.90;;;;;;5063787;28;20059;-67
2022/08/06 10:48:43;;;;;;;1.77;0.95;;;23.40;53.80;;;;;;5065410;28;20040;-67
2022/08/06 10:51:11;;;;;;;1.88;0.80;;;23.30;55.10;;;;;;5063883;28;20032;-67
2022/08/06 10:53:43;;;;;;;2.38;0.85;;;23.40;55.80;;;;;;5062167;28;20432;-67
2022/08/06 10:56:11;;;;;;;2.72;0.70;;;23.30;56.20;;;;;;5062591;28;20059;-67
2022/08/06 10:58:38;;;;;;;1.15;0.60;;;23.00;57.00;;;;;;5061864;28;20121;-67
2022/08/06 11:01:10;;;;;;;3.10;1.00;;;22.80;57.80;;;;;;5063346;28;20037;-67
2022/08/06 11:03:55;;;;;;;1.58;0.80;;;22.50;57.30;;;;;;5066455;28;20037;-67
2022/08/06 11:06:58;;;;;;;6.28;1.00;;;22.00;57.60;;;;;;5072318;28;20045;-67
2022/08/06 11:09:48;;;;;;;2.08;0.90;;;21.50;58.90;;;;;;5057844;28;20082;-67
2022/08/06 11:12:43;;;;;;;1.80;0.85;;;21.10;60.90;;;;;;5062064;28;20064;-67
2022/08/06 11:15:09;;;;;;;2.00;0.80;;;20.90;61.20;;;;;;5058117;28;20052;-67
2022/08/06 11:17:53;;;;;;;1.92;0.98;;;20.80;61.50;;;;;;5065533;28;20082;-67
2022/08/06 11:20:36;;;;;;;3.13;1.13;;;20.80;61.10;;;;;;5064372;28;20044;-67
2022/08/06 11:23:07;;;;;;;2.05;0.80;;;20.90;61.90;;;;;;5064831;28;20538;-67
2022/08/06 11:26:09;;;;;;;3.15;1.00;;;21.00;60.20;;;;;;5064030;28;20059;-66
2022/08/06 11:28:35;;;;;;;2.53;0.80;;;21.30;60.10;;;;;;5059326;28;20171;-67
2022/08/06 11:31:04;;;;;;;2.33;0.77;;;22.10;61.30;;;;;;5056881;28;20530;-66
2022/08/06 11:33:32;;;;;;;3.45;0.95;;;22.70;58.90;;;;;;5064422;28;20029;-67
2022/08/06 11:36:02;;;;;;;3.22;0.90;;;22.80;56.30;;;;;;5061969;28;20643;-67
2022/08/06 11:38:54;;;;;;;2.00;0.80;;;22.70;56.20;;;;;;5063853;28;20070;-67
2022/08/06 11:41:25;;;;;;;5.47;1.00;;;22.50;56.80;;;;;;5062398;28;20056;-66
2022/08/06 11:43:53;;;;;;;5.43;1.17;;;22.30;57.40;;;;;;5061074;28;20067;-66
2022/08/06 11:46:24;;;;;;;2.08;1.15;;;22.20;57.20;;;;;;5060942;28;20036;-66
2022/08/06 11:49:04;;;;;;;3.00;1.00;;;22.00;57.40;;;;;;5063945;28;20033;-66
2022/08/06 11:51:58;;;;;;;2.58;0.80;;;22.00;58.30;;;;;;5061728;28;20037;-66
2022/08/06 11:54:28;;;;;;;;;;;21.90;59.50;;;;;;5067404;28;20076;-66
2022/08/06 11:57:09;;;;;;;1.83;0.73;;;21.90;61.70;;;;;;5056614;28;19940;-66
2022/08/06 11:59:44;;;;;;;1.48;0.80;;;21.80;60.40;;;;;;5068057;28;20387;-66
2022/08/06 12:02:12;;;;;;;2.75;0.90;;;21.80;60.20;;;;;;5062757;28;20033;-66
2022/08/06 12:04:39;;;;;;;1.77;1.10;;;21.70;61.10;;;;;;5061641;28;20052;-67
2022/08/06 12:07:25;;;;;;;2.40;1.00;;;21.60;61.00;;;;;;5063607;28;20125;-67
2022/08/06 12:09:59;;;;;;;2.28;0.93;;;21.60;62.30;;;;;;5064192;28;20044;-67
2022/08/06 12:12:28;;;;;;;2.38;1.05;;;21.60;61.90;;;;;;5067400;28;20056;-67
2022/08/06 12:14:58;;;;;;;1.33;0.70;;;21.80;61.70;;;;;;5068952;28;20437;-66
2022/08/06 12:17:26;;;;;;;2.17;1.10;;;21.80;61.40;;;;;;5062680;28;20342;-67
2022/08/06 12:19:55;;;;;;;1.45;0.77;;;22.10;62.70;;;;;;5064254;28;20045;-67
2022/08/06 12:22:22;;;;;;;2.28;0.80;;;22.40;60.40;;;;;;5062969;28;20461;-67
2022/08/06 12:24:54;;;;;;;1.75;1.00;;;22.60;60.40;;;;;;5061290;28;20123;-67
2022/08/06 12:27:21;;;;;;;3.22;1.17;;;22.80;60.40;;;;;;5060058;28;20087;-67
2022/08/06 12:29:47;;;;;;;1.50;0.90;;;22.80;60.40;;;;;;5061719;28;20141;-67
2022/08/06 12:32:33;;;;;;;6.53;1.35;;;23.00;60.50;;;;;;5062087;28;20497;-67
2022/08/06 12:35:02;;;;;;;2.88;1.10;;;23.30;58.40;;;;;;5060933;28;20076;-66
2022/08/06 12:37:42;;;;;;;1.70;0.82;;;23.70;60.80;;;;;;5059279;28;20044;-66
2022/08/06 12:40:28;;;;;;;2.90;0.90;;;24.00;57.60;;;;;;5061378;28;20078;-67
2022/08/06 12:43:01;;;;;;;3.00;1.00;;;23.80;56.90;;;;;;5062912;28;20111;-71
2022/08/06 12:45:29;;;;;;;1.90;0.90;;;23.40;56.60;;;;;;5054817;28;20381;-71
2022/08/06 12:48:05;;;;;;;3.95;1.02;;;23.10;57.50;;;;;;5056770;28;20064;-71
2022/08/06 12:50:33;;;;;;;1.98;0.90;;;22.90;58.10;;;;;;5061193;28;20033;-71
2022/08/06 12:53:03;;;;;;;1.77;1.02;;;22.70;59.50;;;;;;5061010;28;20041;-71
2022/08/06 12:55:30;;;;;;;2.15;0.90;;;22.50;59.00;;;;;;5045821;28;20140;-71
2022/08/06 12:57:57;;;;;;;1.75;1.00;;;22.30;58.70;;;;;;5065951;28;20131;-71
2022/08/06 13:00:23;;;;;;;3.90;1.10;;;22.10;58.80;;;;;;5047767;28;20538;-71
2022/08/06 13:02:50;;;;;;;2.58;1.00;;;21.90;59.20;;;;;;5061059;28;20044;-71
2022/08/06 13:05:17;;;;;;;2.15;1.02;;;21.70;60.10;;;;;;5052864;28;20067;-71
2022/08/06 13:07:43;;;;;;;1.42;0.80;;;21.60;59.80;;;;;;5040941;28;20086;-71
2022/08/06 13:10:10;;;;;;;1.30;1.20;;;21.50;59.50;;;;;;5055621;28;20060;-71